createdAt,value
2017-06-27T00:00:29.047Z,1015.02
2017-06-27T00:01:29.690Z,1015.02
2017-06-27T00:02:30.331Z,1014.96
2017-06-27T00:03:30.972Z,1015.01
2017-06-27T00:04:31.618Z,1015.02
2017-06-27T00:05:32.262Z,1015.06
2017-06-27T00:06:32.904Z,1015.11
2017-06-27T00:07:33.945Z,1015.11
2017-06-27T00:08:34.588Z,1015.12
2017-06-27T00:09:35.233Z,1015.08
2017-06-27T00:10:35.874Z,1015.06
2017-06-27T00:11:36.515Z,1015.15
2017-06-27T00:12:37.160Z,1015.07
2017-06-27T00:13:37.799Z,1015.04
2017-06-27T00:14:38.444Z,1015.10
2017-06-27T00:15:39.286Z,1015.03
2017-06-27T00:16:39.933Z,1015.05
2017-06-27T00:17:40.572Z,1015.09
2017-06-27T00:18:41.212Z,1015.05
2017-06-27T00:19:41.854Z,1015.00
2017-06-27T00:20:42.499Z,1015.04
2017-06-27T00:21:43.204Z,1014.97
2017-06-27T00:22:43.842Z,1015.02
2017-06-27T00:23:44.786Z,1014.98
2017-06-27T00:24:45.429Z,1015.01
2017-06-27T00:25:46.070Z,1015.00
2017-06-27T00:26:46.712Z,1015.01
2017-06-27T00:27:47.353Z,1014.99
2017-06-27T00:28:47.994Z,1014.99
2017-06-27T00:29:48.637Z,1015.00
2017-06-27T00:30:49.281Z,1014.99
2017-06-27T00:31:50.078Z,1015.04
2017-06-27T00:32:50.716Z,1015.08
2017-06-27T00:33:51.359Z,1015.06
2017-06-27T00:34:52.009Z,1015.03
2017-06-27T00:35:52.702Z,1015.07
2017-06-27T00:36:53.346Z,1015.07
2017-06-27T00:37:53.988Z,1015.01
2017-06-27T00:38:54.634Z,1015.06
2017-06-27T00:39:55.273Z,1015.03
2017-06-27T00:40:56.115Z,1014.97
2017-06-27T00:41:56.759Z,1014.97
2017-06-27T00:42:57.402Z,1014.90
2017-06-27T00:43:58.045Z,1014.91
2017-06-27T00:44:58.689Z,1014.96
2017-06-27T00:45:59.328Z,1014.92
2017-06-27T00:46:59.971Z,1014.88
2017-06-27T00:48:00.612Z,1014.91
2017-06-27T00:49:01.454Z,1014.88
2017-06-27T00:50:02.096Z,1014.91
2017-06-27T00:51:02.737Z,1014.92
2017-06-27T00:52:03.383Z,1014.81
2017-06-27T00:53:04.022Z,1014.79
2017-06-27T00:54:04.667Z,1014.78
2017-06-27T00:55:05.310Z,1014.89
2017-06-27T00:56:05.953Z,1014.80
2017-06-27T00:57:06.747Z,1014.79
2017-06-27T00:58:07.392Z,1014.83
2017-06-27T00:59:08.031Z,1014.86
2017-06-27T01:00:08.677Z,1014.85
2017-06-27T01:01:09.316Z,1014.79
2017-06-27T01:02:09.957Z,1014.79
2017-06-27T01:03:10.603Z,1014.75
2017-06-27T01:04:11.243Z,1014.67
2017-06-27T01:05:12.085Z,1014.76
2017-06-27T01:06:12.727Z,1014.67
2017-06-27T01:07:13.368Z,1014.67
2017-06-27T01:08:14.011Z,1014.69
2017-06-27T01:09:14.651Z,1014.64
2017-06-27T01:10:15.294Z,1014.62
2017-06-27T01:11:15.938Z,1014.62
2017-06-27T01:12:16.581Z,1014.67
2017-06-27T01:13:17.422Z,1014.66
2017-06-27T01:14:18.063Z,1014.63
2017-06-27T01:15:18.706Z,1014.60
2017-06-27T01:16:19.349Z,1014.60
2017-06-27T01:17:19.992Z,1014.64
2017-06-27T01:18:20.636Z,1014.57
2017-06-27T01:19:21.275Z,1014.57
2017-06-27T01:20:21.917Z,1014.60
2017-06-27T01:21:22.559Z,1014.51
2017-06-27T01:22:23.403Z,1014.53
2017-06-27T01:23:24.047Z,1014.59
2017-06-27T01:24:24.686Z,1014.50
2017-06-27T01:25:25.331Z,1014.53
2017-06-27T01:26:25.971Z,1014.49
2017-06-27T01:27:26.615Z,1014.50
2017-06-27T01:28:27.257Z,1014.44
2017-06-27T01:29:27.902Z,1014.51
2017-06-27T01:30:28.744Z,1014.52
2017-06-27T01:31:29.386Z,1014.47
2017-06-27T01:32:30.030Z,1014.47
2017-06-27T01:33:30.671Z,1014.52
2017-06-27T01:34:31.318Z,1014.51
2017-06-27T01:35:31.958Z,1014.56
2017-06-27T01:36:32.599Z,1014.53
2017-06-27T01:37:33.242Z,1014.61
2017-06-27T01:38:34.086Z,1014.50
2017-06-27T01:39:34.731Z,1014.52
2017-06-27T01:40:35.374Z,1014.54
2017-06-27T01:41:36.016Z,1014.53
2017-06-27T01:42:36.657Z,1014.47
2017-06-27T01:43:37.303Z,1014.46
2017-06-27T01:44:37.943Z,1014.51
2017-06-27T01:45:38.583Z,1014.57
2017-06-27T01:46:39.427Z,1014.54
2017-06-27T01:47:40.075Z,1014.62
2017-06-27T01:48:40.715Z,1014.60
2017-06-27T01:49:41.359Z,1014.56
2017-06-27T01:50:42.001Z,1014.54
2017-06-27T01:51:42.642Z,1014.51
2017-06-27T01:52:43.285Z,1014.51
2017-06-27T01:53:43.928Z,1014.50
2017-06-27T01:54:44.570Z,1014.51
2017-06-27T01:55:45.362Z,1014.47
2017-06-27T01:56:46.005Z,1014.46
2017-06-27T01:57:46.647Z,1014.41
2017-06-27T01:58:47.288Z,1014.40
2017-06-27T01:59:47.930Z,1014.41
2017-06-27T02:00:48.570Z,1014.41
2017-06-27T02:01:49.212Z,1014.48
2017-06-27T02:02:49.856Z,1014.41
2017-06-27T02:03:50.699Z,1014.42
2017-06-27T02:04:51.340Z,1014.37
2017-06-27T02:05:51.983Z,1014.42
2017-06-27T02:06:52.623Z,1014.44
2017-06-27T02:07:53.266Z,1014.39
2017-06-27T02:08:53.911Z,1014.39
2017-06-27T02:09:54.551Z,1014.44
2017-06-27T02:10:55.193Z,1014.46
2017-06-27T02:11:56.035Z,1014.42
2017-06-27T02:12:56.681Z,1014.39
2017-06-27T02:13:57.323Z,1014.42
2017-06-27T02:14:57.964Z,1014.44
2017-06-27T02:15:58.608Z,1014.38
2017-06-27T02:16:59.249Z,1014.38
2017-06-27T02:17:59.890Z,1014.45
2017-06-27T02:19:00.531Z,1014.45
2017-06-27T02:20:01.325Z,1014.45
2017-06-27T02:21:01.970Z,1014.49
2017-06-27T02:22:02.611Z,1014.41
2017-06-27T02:23:03.254Z,1014.33
2017-06-27T02:24:03.895Z,1014.34
2017-06-27T02:25:04.539Z,1014.41
2017-06-27T02:26:05.182Z,1014.33
2017-06-27T02:27:05.822Z,1014.40
2017-06-27T02:28:06.666Z,1014.37
2017-06-27T02:29:07.309Z,1014.31
2017-06-27T02:30:07.957Z,1014.35
2017-06-27T02:31:08.598Z,1014.45
2017-06-27T02:32:09.238Z,1014.44
2017-06-27T02:33:09.879Z,1014.54
2017-06-27T02:34:10.519Z,1014.49
2017-06-27T02:35:11.164Z,1014.47
2017-06-27T02:36:11.804Z,1014.43
2017-06-27T02:37:12.647Z,1014.41
2017-06-27T02:38:13.291Z,1014.48
2017-06-27T02:39:13.935Z,1014.42
2017-06-27T02:40:14.575Z,1014.48
2017-06-27T02:41:15.216Z,1014.50
2017-06-27T02:42:15.858Z,1014.41
2017-06-27T02:43:16.504Z,1014.42
2017-06-27T02:44:17.145Z,1014.47
2017-06-27T02:45:17.986Z,1014.46
2017-06-27T02:46:18.628Z,1014.46
2017-06-27T02:47:19.273Z,1014.46
2017-06-27T02:48:19.917Z,1014.46
2017-06-27T02:49:20.557Z,1014.45
2017-06-27T02:50:21.207Z,1014.46
2017-06-27T02:51:21.840Z,1014.46
2017-06-27T02:52:22.481Z,1014.43
2017-06-27T02:53:23.326Z,1014.47
2017-06-27T02:54:23.969Z,1014.44
2017-06-27T02:55:24.609Z,1014.48
2017-06-27T02:56:25.251Z,1014.44
2017-06-27T02:57:25.894Z,1014.48
2017-06-27T02:58:26.534Z,1014.46
2017-06-27T02:59:27.180Z,1014.53
2017-06-27T03:00:27.821Z,1014.47
2017-06-27T03:01:28.762Z,1014.46
2017-06-27T03:02:29.403Z,1014.50
2017-06-27T03:03:30.048Z,1014.43
2017-06-27T03:04:30.691Z,1014.47
2017-06-27T03:05:31.332Z,1014.49
2017-06-27T03:06:31.975Z,1014.50
2017-06-27T03:07:32.619Z,1014.49
2017-06-27T03:08:33.261Z,1014.56
2017-06-27T03:09:33.904Z,1014.50
2017-06-27T03:10:34.694Z,1014.55
2017-06-27T03:11:35.339Z,1014.52
2017-06-27T03:12:35.981Z,1014.49
2017-06-27T03:13:36.621Z,1014.53
2017-06-27T03:14:37.262Z,1014.51
2017-06-27T03:15:37.903Z,1014.57
2017-06-27T03:16:38.545Z,1014.47
2017-06-27T03:17:39.188Z,1014.56
2017-06-27T03:18:40.031Z,1014.56
2017-06-27T03:19:40.676Z,1014.55
2017-06-27T03:20:41.316Z,1014.49
2017-06-27T03:21:41.960Z,1014.51
2017-06-27T03:22:42.600Z,1014.57
2017-06-27T03:23:43.244Z,1014.53
2017-06-27T03:24:43.885Z,1014.51
2017-06-27T03:25:44.528Z,1014.47
2017-06-27T03:26:45.373Z,1014.50
2017-06-27T03:27:46.014Z,1014.50
2017-06-27T03:28:46.655Z,1014.53
2017-06-27T03:29:47.297Z,1014.49
2017-06-27T03:30:47.940Z,1014.56
2017-06-27T03:31:48.582Z,1014.53
2017-06-27T03:32:49.225Z,1014.59
2017-06-27T03:33:49.865Z,1014.53
2017-06-27T03:34:50.710Z,1014.55
2017-06-27T03:35:51.352Z,1014.51
2017-06-27T03:36:51.992Z,1014.53
2017-06-27T03:37:52.634Z,1014.51
2017-06-27T03:38:53.274Z,1014.53
2017-06-27T03:39:53.920Z,1014.51
2017-06-27T03:40:54.563Z,1014.50
2017-06-27T03:41:55.208Z,1014.42
2017-06-27T03:42:56.050Z,1014.43
2017-06-27T03:43:56.689Z,1014.44
2017-06-27T03:44:57.361Z,1014.41
2017-06-27T03:45:57.971Z,1014.41
2017-06-27T03:46:58.612Z,1014.41
2017-06-27T03:47:59.253Z,1014.38
2017-06-27T03:48:59.897Z,1014.38
2017-06-27T03:50:00.538Z,1014.36
2017-06-27T03:51:01.179Z,1014.41
2017-06-27T03:52:02.024Z,1014.37
2017-06-27T03:53:02.664Z,1014.39
2017-06-27T03:54:03.308Z,1014.43
2017-06-27T03:55:03.950Z,1014.39
2017-06-27T03:56:04.593Z,1014.37
2017-06-27T03:57:05.237Z,1014.38
2017-06-27T03:58:05.879Z,1014.47
2017-06-27T03:59:06.527Z,1014.35
2017-06-27T04:00:07.466Z,1014.41
2017-06-27T04:01:08.106Z,1014.49
2017-06-27T04:02:08.748Z,1014.44
2017-06-27T04:03:09.388Z,1014.47
2017-06-27T04:04:10.033Z,1014.48
2017-06-27T04:05:10.674Z,1014.38
2017-06-27T04:06:11.317Z,1014.45
2017-06-27T04:07:11.958Z,1014.35
2017-06-27T04:08:12.800Z,1014.40
2017-06-27T04:09:13.444Z,1014.41
2017-06-27T04:10:14.085Z,1014.41
2017-06-27T04:11:14.728Z,1014.38
2017-06-27T04:12:15.370Z,1014.35
2017-06-27T04:13:16.013Z,1014.37
2017-06-27T04:14:16.654Z,1014.40
2017-06-27T04:15:17.296Z,1014.40
2017-06-27T04:16:18.136Z,1014.42
2017-06-27T04:17:18.780Z,1014.47
2017-06-27T04:18:19.422Z,1014.48
2017-06-27T04:19:20.063Z,1014.57
2017-06-27T04:20:20.703Z,1014.45
2017-06-27T04:21:21.345Z,1014.45
2017-06-27T04:22:21.988Z,1014.52
2017-06-27T04:23:22.631Z,1014.49
2017-06-27T04:24:23.274Z,1014.38
2017-06-27T04:25:24.065Z,1014.45
2017-06-27T04:26:24.708Z,1014.52
2017-06-27T04:27:25.349Z,1014.47
2017-06-27T04:28:25.989Z,1014.44
2017-06-27T04:29:26.631Z,1014.51
2017-06-27T04:30:27.274Z,1014.54
2017-06-27T04:31:27.914Z,1014.42
2017-06-27T04:32:28.557Z,1014.38
2017-06-27T04:33:29.401Z,1014.43
2017-06-27T04:34:30.043Z,1014.46
2017-06-27T04:35:30.685Z,1014.41
2017-06-27T04:36:31.328Z,1014.47
2017-06-27T04:37:31.969Z,1014.51
2017-06-27T04:38:32.613Z,1014.49
2017-06-27T04:39:33.254Z,1014.49
2017-06-27T04:40:33.897Z,1014.47
2017-06-27T04:41:34.687Z,1014.49
2017-06-27T04:42:35.332Z,1014.46
2017-06-27T04:43:35.974Z,1014.56
2017-06-27T04:44:36.617Z,1014.60
2017-06-27T04:45:37.259Z,1014.56
2017-06-27T04:46:37.902Z,1014.60
2017-06-27T04:47:38.544Z,1014.65
2017-06-27T04:48:39.187Z,1014.60
2017-06-27T04:49:40.230Z,1014.65
2017-06-27T04:50:40.871Z,1014.72
2017-06-27T04:51:41.513Z,1014.71
2017-06-27T04:52:42.158Z,1014.65
2017-06-27T04:53:42.800Z,1014.74
2017-06-27T04:54:43.441Z,1014.75
2017-06-27T04:55:44.082Z,1014.79
2017-06-27T04:56:44.725Z,1014.81
2017-06-27T04:57:45.615Z,1014.81
2017-06-27T04:58:46.259Z,1014.81
2017-06-27T04:59:46.904Z,1014.84
2017-06-27T05:00:47.544Z,1014.84
2017-06-27T05:01:48.185Z,1014.80
2017-06-27T05:02:48.827Z,1014.86
2017-06-27T05:03:49.529Z,1014.74
2017-06-27T05:04:50.169Z,1014.86
2017-06-27T05:05:50.839Z,1014.81
2017-06-27T05:06:51.752Z,1014.86
2017-06-27T05:07:52.397Z,1014.93
2017-06-27T05:08:53.038Z,1014.89
2017-06-27T05:09:53.684Z,1014.93
2017-06-27T05:10:54.325Z,1014.86
2017-06-27T05:11:54.972Z,1014.95
2017-06-27T05:12:55.608Z,1014.96
2017-06-27T05:13:56.250Z,1014.87
2017-06-27T05:14:57.091Z,1014.95
2017-06-27T05:15:57.733Z,1014.92
2017-06-27T05:16:58.377Z,1014.91
2017-06-27T05:17:59.018Z,1014.98
2017-06-27T05:18:59.660Z,1014.97
2017-06-27T05:20:00.300Z,1015.02
2017-06-27T05:21:00.943Z,1014.92
2017-06-27T05:22:01.587Z,1015.07
2017-06-27T05:23:02.528Z,1015.08
2017-06-27T05:24:03.168Z,1015.04
2017-06-27T05:25:03.809Z,1015.07
2017-06-27T05:26:04.456Z,1015.09
2017-06-27T05:27:05.093Z,1015.03
2017-06-27T05:28:05.735Z,1015.07
2017-06-27T05:29:06.381Z,1015.13
2017-06-27T05:30:07.021Z,1015.08
2017-06-27T05:31:08.164Z,1015.08
2017-06-27T05:32:08.804Z,1015.15
2017-06-27T05:33:09.446Z,1015.15
2017-06-27T05:34:10.090Z,1015.15
2017-06-27T05:35:10.734Z,1015.24
2017-06-27T05:36:11.373Z,1015.31
2017-06-27T05:37:12.016Z,1015.30
2017-06-27T05:38:12.659Z,1015.23
2017-06-27T05:39:13.301Z,1015.27
2017-06-27T05:40:14.096Z,1015.26
2017-06-27T05:41:14.736Z,1015.32
2017-06-27T05:42:15.379Z,1015.40
2017-06-27T05:43:16.021Z,1015.40
2017-06-27T05:44:16.664Z,1015.43
2017-06-27T05:45:17.306Z,1015.38
2017-06-27T05:46:17.950Z,1015.38
2017-06-27T05:47:18.591Z,1015.42
2017-06-27T05:48:19.433Z,1015.38
2017-06-27T05:49:20.077Z,1015.45
2017-06-27T05:50:20.718Z,1015.50
2017-06-27T05:51:21.364Z,1015.45
2017-06-27T05:52:22.062Z,1015.54
2017-06-27T05:53:22.706Z,1015.44
2017-06-27T05:54:23.351Z,1015.48
2017-06-27T05:55:23.992Z,1015.56
2017-06-27T05:56:24.883Z,1015.61
2017-06-27T05:57:25.525Z,1015.47
2017-06-27T05:58:26.165Z,1015.54
2017-06-27T05:59:26.809Z,1015.55
2017-06-27T06:00:27.453Z,1015.58
2017-06-27T06:01:28.095Z,1015.58
2017-06-27T06:02:28.735Z,1015.51
2017-06-27T06:03:33.679Z,1015.55
2017-06-27T06:04:34.470Z,1015.64
2017-06-27T06:05:35.112Z,1015.64
2017-06-27T06:06:35.755Z,1015.57
2017-06-27T06:07:36.396Z,1015.59
2017-06-27T06:08:37.041Z,1015.63
2017-06-27T06:09:37.685Z,1015.63
2017-06-27T06:10:38.328Z,1015.62
2017-06-27T06:11:38.972Z,1015.63
2017-06-27T06:12:39.815Z,1015.66
2017-06-27T06:13:40.455Z,1015.60
2017-06-27T06:14:41.098Z,1015.65
2017-06-27T06:15:41.741Z,1015.70
2017-06-27T06:16:42.383Z,1015.59
2017-06-27T06:17:43.024Z,1015.66
2017-06-27T06:18:43.666Z,1015.63
2017-06-27T06:19:44.310Z,1015.65
2017-06-27T06:20:44.952Z,1015.65
2017-06-27T06:21:45.792Z,1015.65
2017-06-27T06:22:46.436Z,1015.70
2017-06-27T06:23:47.079Z,1015.63
2017-06-27T06:24:47.721Z,1015.65
2017-06-27T06:25:48.361Z,1015.65
2017-06-27T06:26:49.004Z,1015.62
2017-06-27T06:27:49.648Z,1015.62
2017-06-27T06:28:50.292Z,1015.58
2017-06-27T06:29:51.185Z,1015.59
2017-06-27T06:30:51.827Z,1015.59
2017-06-27T06:31:52.468Z,1015.54
2017-06-27T06:32:53.110Z,1015.58
2017-06-27T06:33:53.753Z,1015.59
2017-06-27T06:34:54.396Z,1015.54
2017-06-27T06:35:55.039Z,1015.62
2017-06-27T06:36:55.680Z,1015.64
2017-06-27T06:37:56.521Z,1015.65
2017-06-27T06:38:57.162Z,1015.68
2017-06-27T06:39:57.755Z,1015.74
2017-06-27T06:40:58.398Z,1015.65
2017-06-27T06:41:59.038Z,1015.66
2017-06-27T06:42:59.681Z,1015.70
2017-06-27T06:44:00.322Z,1015.66
2017-06-27T06:45:00.964Z,1015.76
2017-06-27T06:46:02.007Z,1015.78
2017-06-27T06:47:02.647Z,1015.83
2017-06-27T06:48:03.290Z,1015.79
2017-06-27T06:49:03.933Z,1015.85
2017-06-27T06:50:04.578Z,1015.76
2017-06-27T06:51:05.218Z,1015.82
2017-06-27T06:52:05.859Z,1015.92
2017-06-27T06:53:06.501Z,1015.91
2017-06-27T06:54:07.145Z,1015.90
2017-06-27T06:55:08.136Z,1015.85
2017-06-27T06:56:08.780Z,1015.90
2017-06-27T06:57:09.421Z,1015.83
2017-06-27T06:58:10.065Z,1015.92
2017-06-27T06:59:10.710Z,1015.90
2017-06-27T07:00:11.352Z,1015.92
2017-06-27T07:01:11.993Z,1015.90
2017-06-27T07:02:12.638Z,1015.96
2017-06-27T07:03:13.681Z,1015.97
2017-06-27T07:04:14.321Z,1015.99
2017-06-27T07:05:14.965Z,1015.95
2017-06-27T07:06:15.607Z,1015.95
2017-06-27T07:07:16.246Z,1015.95
2017-06-27T07:08:16.890Z,1015.99
2017-06-27T07:09:17.533Z,1015.95
2017-06-27T07:10:18.175Z,1015.97
2017-06-27T07:11:19.015Z,1015.98
2017-06-27T07:12:19.656Z,1015.96
2017-06-27T07:13:20.300Z,1016.03
2017-06-27T07:14:20.945Z,1016.00
2017-06-27T07:15:21.586Z,1015.98
2017-06-27T07:16:22.226Z,1016.00
2017-06-27T07:17:22.868Z,1016.05
2017-06-27T07:18:23.510Z,1016.04
2017-06-27T07:19:24.354Z,1016.02
2017-06-27T07:20:24.996Z,1016.02
2017-06-27T07:21:25.636Z,1015.99
2017-06-27T07:22:26.284Z,1016.00
2017-06-27T07:23:26.980Z,1016.03
2017-06-27T07:24:27.624Z,1016.09
2017-06-27T07:25:28.266Z,1016.06
2017-06-27T07:26:28.907Z,1016.02
2017-06-27T07:27:29.750Z,1016.04
2017-06-27T07:28:30.391Z,1016.13
2017-06-27T07:29:31.032Z,1016.00
2017-06-27T07:30:31.674Z,1016.07
2017-06-27T07:31:32.314Z,1016.06
2017-06-27T07:32:32.958Z,1015.95
2017-06-27T07:33:33.605Z,1015.96
2017-06-27T07:34:34.246Z,1016.02
2017-06-27T07:35:34.885Z,1016.00
2017-06-27T07:36:35.727Z,1016.03
2017-06-27T07:37:36.371Z,1016.03
2017-06-27T07:38:37.013Z,1015.97
2017-06-27T07:39:37.656Z,1016.11
2017-06-27T07:40:38.298Z,1016.00
2017-06-27T07:41:38.941Z,1016.01
2017-06-27T07:42:39.587Z,1016.13
2017-06-27T07:43:40.224Z,1016.07
2017-06-27T07:44:41.165Z,1016.10
2017-06-27T07:45:41.808Z,1016.16
2017-06-27T07:46:42.451Z,1016.10
2017-06-27T07:47:43.092Z,1016.16
2017-06-27T07:48:43.733Z,1016.13
2017-06-27T07:49:44.375Z,1016.14
2017-06-27T07:50:45.018Z,1016.11
2017-06-27T07:51:45.659Z,1016.18
2017-06-27T07:52:46.455Z,1016.21
2017-06-27T07:53:47.095Z,1016.13
2017-06-27T07:54:47.738Z,1016.16
2017-06-27T07:55:48.383Z,1016.21
2017-06-27T07:56:49.023Z,1016.27
2017-06-27T07:57:49.668Z,1016.24
2017-06-27T07:58:50.308Z,1016.25
2017-06-27T07:59:50.950Z,1016.38
2017-06-27T08:00:51.841Z,1016.26
2017-06-27T08:01:52.482Z,1016.30
2017-06-27T08:02:53.128Z,1016.33
2017-06-27T08:03:53.770Z,1016.37
2017-06-27T08:04:54.413Z,1016.30
2017-06-27T08:05:55.054Z,1016.36
2017-06-27T08:06:55.695Z,1016.39
2017-06-27T08:07:56.339Z,1016.34
2017-06-27T08:08:57.380Z,1016.34
2017-06-27T08:09:58.021Z,1016.36
2017-06-27T08:10:58.664Z,1016.33
2017-06-27T08:11:59.306Z,1016.34
2017-06-27T08:12:59.948Z,1016.37
2017-06-27T08:14:00.594Z,1016.38
2017-06-27T08:15:01.238Z,1016.44
2017-06-27T08:16:01.877Z,1016.41
2017-06-27T08:17:02.520Z,1016.46
2017-06-27T08:18:03.362Z,1016.44
2017-06-27T08:19:04.009Z,1016.45
2017-06-27T08:20:04.649Z,1016.46
2017-06-27T08:21:05.290Z,1016.44
2017-06-27T08:22:05.931Z,1016.39
2017-06-27T08:23:06.574Z,1016.53
2017-06-27T08:24:07.164Z,1016.45
2017-06-27T08:25:07.759Z,1016.40
2017-06-27T08:26:08.601Z,1016.43
2017-06-27T08:27:09.243Z,1016.46
2017-06-27T08:28:09.890Z,1016.40
2017-06-27T08:29:10.536Z,1016.47
2017-06-27T08:30:11.178Z,1016.47
2017-06-27T08:31:11.821Z,1016.45
2017-06-27T08:32:12.463Z,1016.52
2017-06-27T08:33:13.107Z,1016.54
2017-06-27T08:34:13.952Z,1016.56
2017-06-27T08:35:14.598Z,1016.50
2017-06-27T08:36:15.242Z,1016.51
2017-06-27T08:37:15.887Z,1016.53
2017-06-27T08:38:16.527Z,1016.49
2017-06-27T08:39:17.170Z,1016.57
2017-06-27T08:40:17.815Z,1016.57
2017-06-27T08:41:18.456Z,1016.57
2017-06-27T08:42:19.253Z,1016.57
2017-06-27T08:43:19.892Z,1016.56
2017-06-27T08:44:20.535Z,1016.71
2017-06-27T08:45:21.179Z,1016.70
2017-06-27T08:46:21.820Z,1016.62
2017-06-27T08:47:22.464Z,1016.63
2017-06-27T08:48:23.108Z,1016.67
2017-06-27T08:49:23.752Z,1016.68
2017-06-27T08:50:24.397Z,1016.68
2017-06-27T08:51:25.241Z,1016.70
2017-06-27T08:52:25.890Z,1016.70
2017-06-27T08:53:26.534Z,1016.65
2017-06-27T08:54:27.175Z,1016.61
2017-06-27T08:55:27.827Z,1016.67
2017-06-27T08:56:28.515Z,1016.69
2017-06-27T08:57:29.160Z,1016.64
2017-06-27T08:58:29.804Z,1016.72
2017-06-27T08:59:30.648Z,1016.65
2017-06-27T09:00:31.295Z,1016.68
2017-06-27T09:01:31.936Z,1016.58
2017-06-27T09:02:32.580Z,1016.63
2017-06-27T09:03:33.220Z,1016.65
2017-06-27T09:04:33.865Z,1016.58
2017-06-27T09:05:34.516Z,1016.68
2017-06-27T09:06:35.160Z,1016.70
2017-06-27T09:07:35.997Z,1016.68
2017-06-27T09:08:36.643Z,1016.62
2017-06-27T09:09:37.285Z,1016.67
2017-06-27T09:10:37.927Z,1016.66
2017-06-27T09:11:38.571Z,1016.61
2017-06-27T09:12:39.216Z,1016.66
2017-06-27T09:13:39.858Z,1016.61
2017-06-27T09:14:40.500Z,1016.61
2017-06-27T09:15:41.442Z,1016.59
2017-06-27T09:16:42.085Z,1016.64
2017-06-27T09:17:42.735Z,1016.65
2017-06-27T09:18:43.433Z,1016.64
2017-06-27T09:19:44.077Z,1016.66
2017-06-27T09:20:44.718Z,1016.63
2017-06-27T09:21:45.360Z,1016.75
2017-06-27T09:22:46.006Z,1016.66
2017-06-27T09:23:47.250Z,1016.67
2017-06-27T09:24:47.893Z,1016.70
2017-06-27T09:25:48.534Z,1016.76
2017-06-27T09:26:49.180Z,1016.73
2017-06-27T09:27:49.820Z,1016.69
2017-06-27T09:28:50.466Z,1016.72
2017-06-27T09:29:51.113Z,1016.79
2017-06-27T09:30:51.820Z,1016.76
2017-06-27T09:31:52.466Z,1016.82
2017-06-27T09:32:53.312Z,1016.79
2017-06-27T09:33:54.015Z,1016.78
2017-06-27T09:34:54.663Z,1016.68
2017-06-27T09:35:55.312Z,1016.73
2017-06-27T09:36:56.008Z,1016.67
2017-06-27T09:37:56.656Z,1016.75
2017-06-27T09:38:57.303Z,1016.74
2017-06-27T09:39:57.951Z,1016.79
2017-06-27T09:40:58.747Z,1016.72
2017-06-27T09:41:59.398Z,1016.70
2017-06-27T09:43:00.048Z,1016.64
2017-06-27T09:44:00.696Z,1016.70
2017-06-27T09:45:01.346Z,1016.76
2017-06-27T09:46:01.995Z,1016.70
2017-06-27T09:47:02.645Z,1016.70
2017-06-27T09:48:03.291Z,1016.79
2017-06-27T09:49:04.145Z,1016.81
2017-06-27T09:50:04.795Z,1016.81
2017-06-27T09:51:05.593Z,1016.74
2017-06-27T09:52:06.242Z,1016.73
2017-06-27T09:53:06.890Z,1016.77
2017-06-27T09:54:07.541Z,1016.77
2017-06-27T09:55:08.188Z,1016.71
2017-06-27T09:56:08.834Z,1016.72
2017-06-27T09:57:09.482Z,1016.72
2017-06-27T09:58:10.129Z,1016.70
2017-06-27T09:59:10.979Z,1016.73
2017-06-27T10:00:11.628Z,1016.71
2017-06-27T10:01:12.276Z,1016.78
2017-06-27T10:02:12.877Z,1016.75
2017-06-27T10:03:13.528Z,1016.85
2017-06-27T10:04:14.173Z,1016.77
2017-06-27T10:05:14.819Z,1016.73
2017-06-27T10:06:15.467Z,1016.77
2017-06-27T10:07:16.266Z,1016.78
2017-06-27T10:08:16.913Z,1016.72
2017-06-27T10:09:17.561Z,1016.76
2017-06-27T10:10:18.211Z,1016.75
2017-06-27T10:11:18.860Z,1016.77
2017-06-27T10:12:19.509Z,1016.77
2017-06-27T10:13:20.160Z,1016.80
2017-06-27T10:14:20.810Z,1016.71
2017-06-27T10:15:21.763Z,1016.85
2017-06-27T10:16:22.409Z,1016.80
2017-06-27T10:17:23.056Z,1016.88
2017-06-27T10:18:23.706Z,1016.82
2017-06-27T10:19:24.412Z,1016.86
2017-06-27T10:20:25.061Z,1016.86
2017-06-27T10:21:25.712Z,1016.85
2017-06-27T10:22:26.359Z,1016.95
2017-06-27T10:23:27.006Z,1016.84
2017-06-27T10:24:27.806Z,1016.85
2017-06-27T10:25:28.455Z,1016.80
2017-06-27T10:26:29.105Z,1016.91
2017-06-27T10:27:29.763Z,1016.94
2017-06-27T10:28:30.410Z,1016.98
2017-06-27T10:29:31.061Z,1016.94
2017-06-27T10:30:31.710Z,1016.93
2017-06-27T10:31:32.360Z,1016.95
2017-06-27T10:32:33.159Z,1017.02
2017-06-27T10:33:33.807Z,1016.97
2017-06-27T10:34:34.455Z,1017.04
2017-06-27T10:35:35.104Z,1016.98
2017-06-27T10:36:35.751Z,1016.91
2017-06-27T10:37:36.450Z,1016.92
2017-06-27T10:38:37.098Z,1016.89
2017-06-27T10:39:37.747Z,1016.91
2017-06-27T10:40:38.696Z,1016.96
2017-06-27T10:41:39.347Z,1016.91
2017-06-27T10:42:39.998Z,1016.89
2017-06-27T10:43:40.643Z,1016.87
2017-06-27T10:44:41.293Z,1016.89
2017-06-27T10:45:41.939Z,1016.86
2017-06-27T10:46:42.588Z,1016.87
2017-06-27T10:47:43.240Z,1016.88
2017-06-27T10:48:44.088Z,1016.85
2017-06-27T10:49:44.737Z,1016.95
2017-06-27T10:50:45.386Z,1016.89
2017-06-27T10:51:46.037Z,1016.96
2017-06-27T10:52:46.686Z,1016.90
2017-06-27T10:53:47.336Z,1016.97
2017-06-27T10:54:47.986Z,1016.97
2017-06-27T10:55:48.637Z,1017.07
2017-06-27T10:56:49.435Z,1017.02
2017-06-27T10:57:50.082Z,1017.02
2017-06-27T10:58:50.733Z,1016.99
2017-06-27T10:59:51.380Z,1017.08
2017-06-27T11:00:52.030Z,1017.01
2017-06-27T11:01:52.680Z,1016.97
2017-06-27T11:02:53.330Z,1017.02
2017-06-27T11:03:53.980Z,1017.05
2017-06-27T11:04:54.628Z,1017.03
2017-06-27T11:05:55.480Z,1017.10
2017-06-27T11:06:56.129Z,1017.08
2017-06-27T11:07:56.778Z,1016.99
2017-06-27T11:08:57.427Z,1017.09
2017-06-27T11:09:58.079Z,1017.08
2017-06-27T11:10:58.728Z,1017.18
2017-06-27T11:11:59.376Z,1017.01
2017-06-27T11:13:00.026Z,1017.10
2017-06-27T11:14:00.832Z,1017.06
2017-06-27T11:15:01.534Z,1017.01
2017-06-27T11:16:02.187Z,1016.98
2017-06-27T11:17:02.834Z,1017.01
2017-06-27T11:18:03.484Z,1016.99
2017-06-27T11:19:04.135Z,1016.99
2017-06-27T11:20:04.787Z,1017.02
2017-06-27T11:21:05.436Z,1017.07
2017-06-27T11:22:06.286Z,1017.08
2017-06-27T11:23:06.935Z,1016.98
2017-06-27T11:24:07.583Z,1017.02
2017-06-27T11:25:08.234Z,1017.06
2017-06-27T11:26:08.881Z,1017.00
2017-06-27T11:27:09.532Z,1016.97
2017-06-27T11:28:10.179Z,1017.03
2017-06-27T11:29:10.831Z,1017.06
2017-06-27T11:30:11.679Z,1017.05
2017-06-27T11:31:12.331Z,1017.08
2017-06-27T11:32:12.982Z,1016.94
2017-06-27T11:33:13.582Z,1017.09
2017-06-27T11:34:14.235Z,1017.13
2017-06-27T11:35:14.884Z,1017.14
2017-06-27T11:36:15.539Z,1017.08
2017-06-27T11:37:16.190Z,1017.12
2017-06-27T11:38:16.842Z,1017.14
2017-06-27T11:39:17.741Z,1017.08
2017-06-27T11:40:18.393Z,1017.17
2017-06-27T11:41:19.046Z,1017.23
2017-06-27T11:42:19.698Z,1017.21
2017-06-27T11:43:20.349Z,1017.14
2017-06-27T11:44:21.001Z,1017.21
2017-06-27T11:45:21.651Z,1017.16
2017-06-27T11:46:22.303Z,1017.20
2017-06-27T11:47:23.203Z,1017.15
2017-06-27T11:48:23.856Z,1017.18
2017-06-27T11:49:24.506Z,1017.18
2017-06-27T11:50:25.159Z,1017.19
2017-06-27T11:51:25.810Z,1017.33
2017-06-27T11:52:26.462Z,1017.17
2017-06-27T11:53:27.116Z,1017.25
2017-06-27T11:54:27.769Z,1017.19
2017-06-27T11:55:28.572Z,1017.20
2017-06-27T11:56:29.223Z,1017.26
2017-06-27T11:57:29.822Z,1017.23
2017-06-27T11:58:30.475Z,1017.31
2017-06-27T11:59:31.126Z,1017.19
2017-06-27T12:00:31.780Z,1017.24
2017-06-27T12:01:32.432Z,1017.22
2017-06-27T12:02:33.080Z,1017.26
2017-06-27T12:03:33.931Z,1017.22
2017-06-27T12:04:34.582Z,1017.23
2017-06-27T12:05:35.233Z,1017.20
2017-06-27T12:06:35.884Z,1017.27
2017-06-27T12:07:36.536Z,1017.17
2017-06-27T12:08:37.188Z,1017.30
2017-06-27T12:09:37.836Z,1017.28
2017-06-27T12:10:38.489Z,1017.36
2017-06-27T12:11:39.198Z,1017.42
2017-06-27T12:12:40.050Z,1017.39
2017-06-27T12:13:40.701Z,1017.31